Time;durP1;ratioP1;P1;durP2;ratioP2;P2;SDS_P1;SDS_P2;PMS_P1;PMS_P2;Temp;Humidity;BMP_temperature;BMP_pressure;BME280_temperature;BME280_humidity;BME280_pressure;Samples;Min_cycle;Max_cycle;Signal;HPM_P1;HPM_P2
2024/04/12 00:01:13;;;;;;;5.53;4.20;;;;;;;;;;5424917;26;20691;-59
2024/04/12 00:03:41;;;;;;;8.80;3.80;;;;;;;;;;5426038;26;20230;-58
2024/04/12 00:06:15;;;;;;;5.10;4.27;;;;;;;;;;5429467;26;20221;-59
2024/04/12 00:08:50;;;;;;;6.10;4.00;;;;;;;;;;5436556;26;20330;-58
2024/04/12 00:11:20;;;;;;;6.70;4.47;;;;;;;;;;5433077;26;20325;-58
2024/04/12 00:13:47;;;;;;;5.20;4.00;;;;;;;;;;5436278;26;20229;-58
2024/04/12 00:16:17;;;;;;;4.97;4.20;;;;;;;;;;5426627;26;20352;-58
2024/04/12 00:18:45;;;;;;;9.37;4.70;;;;;;;;;;5430557;26;20271;-58
2024/04/12 00:21:12;;;;;;;7.10;4.00;;;;;;;;;;5422412;26;20261;-58
2024/04/12 00:23:41;;;;;;;7.07;4.43;;;;;;;;;;5419414;26;20246;-59
2024/04/12 00:26:11;;;;;;;4.53;3.80;;;;;;;;;;5436428;26;20288;-59
2024/04/12 00:28:38;;;;;;;7.10;4.10;;;;;;;;;;5417719;26;20230;-58
2024/04/12 00:31:06;;;;;;;8.20;4.23;;;;;;;;;;5420636;26;20234;-58
2024/04/12 00:33:33;;;;;;;7.07;3.90;;;;;;;;;;5416115;26;20327;-58
2024/04/12 00:36:07;;;;;;;5.13;4.63;;;;;;;;;;5431801;26;20233;-58
2024/04/12 00:38:35;;;;;;;5.30;4.03;;;;;;;;;;5417400;26;21013;-58
2024/04/12 00:41:11;;;;;;;4.23;3.83;;;;;;;;;;5414527;26;20298;-59
2024/04/12 00:43:38;;;;;;;4.83;3.90;;;;;;;;;;5426412;26;20233;-58
2024/04/12 00:46:04;;;;;;;4.90;3.50;;;;;;;;;;5416579;26;20289;-58
2024/04/12 00:48:31;;;;;;;8.20;4.53;;;;;;;;;;5415349;26;20274;-60
2024/04/12 00:51:01;;;;;;;4.47;3.60;;;;;;;;;;5418483;26;20249;-60
2024/04/12 00:53:28;;;;;;;7.93;4.00;;;;;;;;;;5426415;26;20326;-60
2024/04/12 00:56:00;;;;;;;4.00;3.67;;;;;;;;;;5430743;26;20233;-60
2024/04/12 00:58:34;;;;;;;4.73;3.60;;;;;;;;;;5440862;26;20750;-60
2024/04/12 01:01:11;;;;;;;4.30;3.87;;;;;;;;;;5432167;26;20228;-61
2024/04/12 01:03:45;;;;;;;5.03;4.10;;;;;;;;;;5436226;26;20273;-60
2024/04/12 01:06:15;;;;;;;6.07;3.63;;;;;;;;;;5425112;26;20264;-61
2024/04/12 01:08:43;;;;;;;4.80;3.87;;;;;;;;;;5440496;26;20698;-60
2024/04/12 01:11:11;;;;;;;5.53;3.40;;;;;;;;;;5421712;26;20227;-61
2024/04/12 01:13:37;;;;;;;6.90;3.70;;;;;;;;;;5417792;26;20594;-60
2024/04/12 01:16:05;;;;;;;5.70;3.57;;;;;;;;;;5423945;26;20228;-60
2024/04/12 01:18:32;;;;;;;6.50;4.13;;;;;;;;;;5420685;26;20255;-60
2024/04/12 01:21:00;;;;;;;5.87;3.73;;;;;;;;;;5425233;26;20248;-60
2024/04/12 01:23:27;;;;;;;7.27;3.50;;;;;;;;;;5421613;26;20708;-60
2024/04/12 01:25:56;;;;;;;7.03;4.43;;;;;;;;;;5433010;26;20708;-61
2024/04/12 01:28:22;;;;;;;5.93;3.13;;;;;;;;;;5437377;26;20280;-58
2024/04/12 01:30:48;;;;;;;5.93;3.43;;;;;;;;;;5425759;26;20225;-59
2024/04/12 01:33:14;;;;;;;6.70;3.50;;;;;;;;;;5427822;26;20782;-57
2024/04/12 01:35:44;;;;;;;4.87;3.60;;;;;;;;;;5425637;26;20328;-59
2024/04/12 01:38:18;;;;;;;7.35;4.20;;;;;;;;;;5424594;26;20360;-59
2024/04/12 01:40:46;;;;;;;4.97;3.77;;;;;;;;;;5423313;26;20277;-59
2024/04/12 01:43:18;;;;;;;6.13;3.63;;;;;;;;;;5418729;26;20234;-59
2024/04/12 01:45:45;;;;;;;5.83;3.70;;;;;;;;;;5421655;26;20709;-59
2024/04/12 01:48:11;;;;;;;6.60;3.90;;;;;;;;;;5424731;26;20716;-59
2024/04/12 01:50:40;;;;;;;6.77;3.90;;;;;;;;;;5421686;26;20237;-59
2024/04/12 01:53:09;;;;;;;4.20;3.70;;;;;;;;;;5412957;26;20226;-59
2024/04/12 01:55:39;;;;;;;4.73;3.87;;;;;;;;;;5415491;26;20227;-59
2024/04/12 01:58:06;;;;;;;3.63;3.10;;;;;;;;;;5412372;26;20269;-60
2024/04/12 02:00:33;;;;;;;5.77;3.80;;;;;;;;;;5419284;26;20249;-61
2024/04/12 02:02:59;;;;;;;5.53;4.00;;;;;;;;;;5436543;26;20238;-60
2024/04/12 02:05:32;;;;;;;5.43;4.87;;;;;;;;;;5427949;26;20231;-60
2024/04/12 02:07:59;;;;;;;5.33;4.57;;;;;;;;;;5422457;26;20235;-60
2024/04/12 02:10:26;;;;;;;6.37;4.67;;;;;;;;;;5418649;26;20263;-60
2024/04/12 02:12:55;;;;;;;7.83;4.07;;;;;;;;;;5414977;26;20218;-60
2024/04/12 02:15:25;;;;;;;8.40;4.33;;;;;;;;;;5422150;26;21023;-60
2024/04/12 02:17:58;;;;;;;6.23;5.20;;;;;;;;;;5423353;26;20779;-58
2024/04/12 02:20:33;;;;;;;7.00;4.27;;;;;;;;;;5414082;26;20227;-60
2024/04/12 02:23:05;;;;;;;7.00;5.00;;;;;;;;;;5412183;26;20674;-60
2024/04/12 02:25:35;;;;;;;9.57;4.23;;;;;;;;;;5426486;26;20285;-61
2024/04/12 02:28:07;;;;;;;8.13;4.73;;;;;;;;;;5420392;26;20330;-61
2024/04/12 02:30:41;;;;;;;4.30;3.87;;;;;;;;;;5418481;26;20239;-60
2024/04/12 02:33:08;;;;;;;5.17;4.10;;;;;;;;;;5422654;26;20318;-60
2024/04/12 02:35:35;;;;;;;6.80;4.13;;;;;;;;;;5422988;26;20304;-60
2024/04/12 02:38:01;;;;;;;6.00;4.20;;;;;;;;;;5435542;26;20604;-60
2024/04/12 02:40:27;;;;;;;9.53;4.20;;;;;;;;;;5427422;26;20225;-61
2024/04/12 02:42:53;;;;;;;4.87;4.37;;;;;;;;;;5419509;26;20276;-60
2024/04/12 02:45:19;;;;;;;5.07;4.03;;;;;;;;;;5429727;26;20236;-60
2024/04/12 02:47:45;;;;;;;7.00;4.57;;;;;;;;;;5426882;26;20697;-61
2024/04/12 02:50:11;;;;;;;4.57;4.17;;;;;;;;;;5427724;26;20230;-61
2024/04/12 02:52:40;;;;;;;4.30;3.90;;;;;;;;;;5413581;26;20235;-61
2024/04/12 02:55:12;;;;;;;5.77;4.20;;;;;;;;;;5424886;26;20281;-61
2024/04/12 02:57:42;;;;;;;5.30;4.60;;;;;;;;;;5413028;26;20277;-60
2024/04/12 03:00:25;;;;;;;5.70;5.03;;;;;;;;;;5415062;26;20226;-60
2024/04/12 03:02:53;;;;;;;5.60;5.10;;;;;;;;;;5428089;26;20713;-60
2024/04/12 03:05:23;;;;;;;8.43;5.30;;;;;;;;;;5427301;26;20225;-60
2024/04/12 03:07:52;;;;;;;6.57;5.97;;;;;;;;;;5411607;26;20298;-60
2024/04/12 03:10:23;;;;;;;9.03;6.23;;;;;;;;;;5416352;26;20616;-60
2024/04/12 03:12:53;;;;;;;7.30;5.93;;;;;;;;;;5420085;26;20275;-60
2024/04/12 03:15:19;;;;;;;6.23;5.40;;;;;;;;;;5414868;26;20714;-60
2024/04/12 03:17:48;;;;;;;6.33;5.73;;;;;;;;;;5425658;26;20235;-60
2024/04/12 03:20:15;;;;;;;9.53;5.60;;;;;;;;;;5420649;26;20227;-60
2024/04/12 03:22:44;;;;;;;6.57;5.90;;;;;;;;;;5428921;26;20713;-60
2024/04/12 03:25:10;;;;;;;7.40;6.30;;;;;;;;;;5425893;26;20710;-60
2024/04/12 03:27:38;;;;;;;6.83;6.10;;;;;;;;;;5411001;26;20753;-60
2024/04/12 03:30:13;;;;;;;7.97;7.17;;;;;;;;;;5416597;26;20227;-60
2024/04/12 03:32:44;;;;;;;10.53;8.00;;;;;;;;;;5412748;26;20230;-60
2024/04/12 03:35:10;;;;;;;10.47;6.53;;;;;;;;;;5419786;26;20280;-59
2024/04/12 03:37:39;;;;;;;8.53;6.93;;;;;;;;;;5414869;26;20230;-59
2024/04/12 03:40:15;;;;;;;7.97;7.13;;;;;;;;;;5416508;26;20239;-59
2024/04/12 03:42:41;;;;;;;9.63;7.33;;;;;;;;;;5431112;26;20257;-60
2024/04/12 03:45:12;;;;;;;8.70;7.37;;;;;;;;;;5437573;26;20234;-59
2024/04/12 03:47:44;;;;;;;9.60;6.40;;;;;;;;;;5410344;26;20921;-59
2024/04/12 03:50:13;;;;;;;7.33;5.97;;;;;;;;;;5426043;26;20230;-59
2024/04/12 03:52:48;;;;;;;6.13;5.53;;;;;;;;;;5429506;26;20245;-59
2024/04/12 03:55:14;;;;;;;6.40;5.57;;;;;;;;;;5423901;26;20249;-59
2024/04/12 03:57:44;;;;;;;6.63;5.33;;;;;;;;;;5419430;26;20271;-59
2024/04/12 04:00:11;;;;;;;7.17;5.77;;;;;;;;;;5432505;26;20266;-58
2024/04/12 04:02:37;;;;;;;10.00;5.83;;;;;;;;;;5410910;26;22609;-58
2024/04/12 04:05:14;;;;;;;6.43;5.43;;;;;;;;;;5423538;26;20233;-59
2024/04/12 04:07:43;;;;;;;8.93;5.17;;;;;;;;;;5439661;26;20226;-58
2024/04/12 04:10:13;;;;;;;7.60;5.67;;;;;;;;;;5417081;26;20394;-59
2024/04/12 04:12:45;;;;;;;5.70;5.20;;;;;;;;;;5417905;26;20225;-58
2024/04/12 04:15:14;;;;;;;6.63;5.37;;;;;;;;;;5420451;26;20221;-59
2024/04/12 04:17:47;;;;;;;7.87;5.00;;;;;;;;;;5423898;26;20844;-58
2024/04/12 04:20:13;;;;;;;6.30;5.03;;;;;;;;;;5415249;26;20282;-60
2024/04/12 04:22:40;;;;;;;5.73;4.90;;;;;;;;;;5426447;26;20776;-60
2024/04/12 04:25:08;;;;;;;5.77;5.27;;;;;;;;;;5432762;26;20240;-60
2024/04/12 04:27:34;;;;;;;6.63;4.90;;;;;;;;;;5427890;26;20250;-60
2024/04/12 04:30:00;;;;;;;5.60;5.10;;;;;;;;;;5419433;26;20229;-60
2024/04/12 04:32:27;;;;;;;5.37;4.83;;;;;;;;;;5416547;26;20550;-60
2024/04/12 04:35:08;;;;;;;6.37;4.77;;;;;;;;;;5435217;26;20231;-60
2024/04/12 04:37:35;;;;;;;6.90;5.37;;;;;;;;;;5425596;26;20275;-60
2024/04/12 04:40:08;;;;;;;7.57;5.30;;;;;;;;;;5419129;26;20555;-60
2024/04/12 04:42:35;;;;;;;6.20;4.80;;;;;;;;;;5414239;26;20270;-59
2024/04/12 04:45:01;;;;;;;5.23;4.73;;;;;;;;;;5425672;26;20277;-60
2024/04/12 04:47:28;;;;;;;6.27;5.30;;;;;;;;;;5415796;26;20269;-60
2024/04/12 04:49:55;;;;;;;6.00;5.10;;;;;;;;;;5425193;26;20246;-60
2024/04/12 04:52:21;;;;;;;10.43;6.27;;;;;;;;;;5419671;26;20233;-60
2024/04/12 04:54:47;;;;;;;12.27;5.90;;;;;;;;;;5430417;26;20223;-60
2024/04/12 04:57:15;;;;;;;8.07;5.83;;;;;;;;;;5420767;26;20236;-60
2024/04/12 04:59:44;;;;;;;5.57;4.90;;;;;;;;;;5420786;26;20582;-58
2024/04/12 05:02:10;;;;;;;9.40;6.33;;;;;;;;;;5422804;26;20794;-58
2024/04/12 05:04:36;;;;;;;8.33;6.60;;;;;;;;;;5420673;26;20822;-59
2024/04/12 05:07:03;;;;;;;9.67;6.43;;;;;;;;;;5433117;26;20692;-58
2024/04/12 05:09:29;;;;;;;6.70;5.93;;;;;;;;;;5420198;26;20837;-58
2024/04/12 05:11:55;;;;;;;11.87;7.27;;;;;;;;;;5425586;26;20240;-59
2024/04/12 05:17:03;;;;;;;8.00;6.73;;;;;;;;;;5414125;26;20225;-59
2024/04/12 05:19:31;;;;;;;8.17;7.37;;;;;;;;;;5432917;26;20571;-59
2024/04/12 05:21:59;;;;;;;9.50;7.13;;;;;;;;;;5416722;26;20305;-59
2024/04/12 05:24:25;;;;;;;10.93;7.60;;;;;;;;;;5426624;26;20226;-59
2024/04/12 05:27:01;;;;;;;9.53;7.23;;;;;;;;;;5422135;26;20596;-59
2024/04/12 05:29:30;;;;;;;8.10;7.30;;;;;;;;;;5430154;26;20806;-58
2024/04/12 05:31:56;;;;;;;12.17;8.77;;;;;;;;;;5434371;26;20304;-57
2024/04/12 05:34:22;;;;;;;8.50;7.37;;;;;;;;;;5417817;26;20272;-58
2024/04/12 05:36:49;;;;;;;16.23;8.40;;;;;;;;;;5422791;26;20232;-56
2024/04/12 05:39:19;;;;;;;9.20;7.50;;;;;;;;;;5425060;26;20268;-57
2024/04/12 05:41:45;;;;;;;16.77;7.77;;;;;;;;;;5432192;26;20279;-58
2024/04/12 05:44:14;;;;;;;10.30;7.90;;;;;;;;;;5421425;26;20219;-58
2024/04/12 05:46:41;;;;;;;11.80;8.50;;;;;;;;;;5430765;26;20336;-58
2024/04/12 05:49:11;;;;;;;8.10;7.33;;;;;;;;;;5425963;26;20279;-57
2024/04/12 05:51:41;;;;;;;10.33;7.57;;;;;;;;;;5416844;26;20293;-58
2024/04/12 05:54:10;;;;;;;7.77;6.50;;;;;;;;;;5430055;26;20673;-57
2024/04/12 05:56:39;;;;;;;9.13;7.03;;;;;;;;;;5413950;26;20564;-57
2024/04/12 05:59:15;;;;;;;10.03;6.93;;;;;;;;;;5429529;26;20233;-58
2024/04/12 06:01:46;;;;;;;10.80;8.23;;;;;;;;;;5426316;26;20280;-57
2024/04/12 06:04:12;;;;;;;9.90;7.20;;;;;;;;;;5428289;26;20681;-59
2024/04/12 06:06:43;;;;;;;9.07;6.33;;;;;;;;;;5420864;26;20586;-57
2024/04/12 06:09:22;;;;;;;10.17;7.27;;;;;;;;;;5413858;26;20339;-57
2024/04/12 06:11:50;;;;;;;8.83;6.60;;;;;;;;;;5424875;26;20726;-60
2024/04/12 06:14:16;;;;;;;9.23;6.97;;;;;;;;;;5420289;26;20229;-59
2024/04/12 06:16:42;;;;;;;12.13;7.13;;;;;;;;;;5426727;26;20285;-60
2024/04/12 06:19:12;;;;;;;6.87;5.97;;;;;;;;;;5421406;26;20225;-59
2024/04/12 06:21:38;;;;;;;9.77;6.57;;;;;;;;;;5419268;26;20227;-59
2024/04/12 06:24:09;;;;;;;9.90;6.00;;;;;;;;;;5428304;26;20714;-60
2024/04/12 06:26:39;;;;;;;8.43;6.30;;;;;;;;;;5429395;26;21009;-60
2024/04/12 06:29:06;;;;;;;8.60;6.43;;;;;;;;;;5417629;26;20275;-60
2024/04/12 06:31:35;;;;;;;9.63;6.50;;;;;;;;;;5428896;26;20653;-60
2024/04/12 06:34:05;;;;;;;8.83;5.63;;;;;;;;;;5422224;26;20629;-60
2024/04/12 06:36:33;;;;;;;7.20;5.63;;;;;;;;;;5419705;26;20228;-60
2024/04/12 06:39:04;;;;;;;8.03;6.60;;;;;;;;;;5423169;26;20229;-59
2024/04/12 06:41:30;;;;;;;7.03;4.97;;;;;;;;;;5423844;26;20636;-58
2024/04/12 06:43:56;;;;;;;8.43;5.17;;;;;;;;;;5434352;26;20225;-58
2024/04/12 06:46:27;;;;;;;9.57;6.07;;;;;;;;;;5426932;26;20234;-57
2024/04/12 06:48:59;;;;;;;8.33;5.87;;;;;;;;;;5430195;26;20233;-58
2024/04/12 06:51:26;;;;;;;7.87;5.90;;;;;;;;;;5421333;26;20233;-57
2024/04/12 06:53:54;;;;;;;8.33;5.93;;;;;;;;;;5422704;26;20242;-58
2024/04/12 06:56:20;;;;;;;6.83;5.60;;;;;;;;;;5432399;26;20268;-57
2024/04/12 06:58:46;;;;;;;8.07;5.50;;;;;;;;;;5426775;26;20267;-58
2024/04/12 07:01:13;;;;;;;8.03;5.63;;;;;;;;;;5430618;26;20241;-59
2024/04/12 07:03:45;;;;;;;6.97;5.60;;;;;;;;;;5416073;26;20236;-57
2024/04/12 07:06:14;;;;;;;8.17;5.63;;;;;;;;;;5428139;26;20232;-58
2024/04/12 07:08:49;;;;;;;10.77;5.77;;;;;;;;;;5428724;26;20236;-58
2024/04/12 07:11:16;;;;;;;10.37;6.47;;;;;;;;;;5420513;26;20237;-59
2024/04/12 07:13:49;;;;;;;7.40;5.70;;;;;;;;;;5421104;26;20634;-57
2024/04/12 07:16:16;;;;;;;9.27;6.30;;;;;;;;;;5423060;26;20291;-58
2024/04/12 07:18:42;;;;;;;6.73;5.97;;;;;;;;;;5421695;26;20345;-57
2024/04/12 07:21:15;;;;;;;7.77;5.80;;;;;;;;;;5418698;26;20246;-59
2024/04/12 07:23:51;;;;;;;6.43;5.50;;;;;;;;;;5431092;26;20266;-60
2024/04/12 07:26:24;;;;;;;7.67;5.17;;;;;;;;;;5428537;26;20269;-60
2024/04/12 07:28:58;;;;;;;7.03;5.53;;;;;;;;;;5414316;26;20896;-60
2024/04/12 07:31:25;;;;;;;7.33;5.23;;;;;;;;;;5435190;26;20253;-59
2024/04/12 07:33:59;;;;;;;7.13;5.43;;;;;;;;;;5430104;26;20759;-58
2024/04/12 07:36:30;;;;;;;5.23;4.73;;;;;;;;;;5430662;26;21031;-59
2024/04/12 07:38:56;;;;;;;6.30;4.67;;;;;;;;;;5418312;26;20365;-59
2024/04/12 07:41:23;;;;;;;6.00;3.90;;;;;;;;;;5431112;26;20238;-59
2024/04/12 07:43:50;;;;;;;4.77;4.37;;;;;;;;;;5422998;26;20226;-58
2024/04/12 07:46:17;;;;;;;4.70;4.30;;;;;;;;;;5427894;26;20227;-60
2024/04/12 07:48:48;;;;;;;6.63;4.90;;;;;;;;;;5433323;26;20225;-59
2024/04/12 07:51:20;;;;;;;7.03;4.37;;;;;;;;;;5428744;26;20813;-58
2024/04/12 07:53:47;;;;;;;5.33;4.57;;;;;;;;;;5433560;26;20268;-57
2024/04/12 07:56:16;;;;;;;4.97;4.47;;;;;;;;;;5433052;26;20231;-58
2024/04/12 07:58:50;;;;;;;5.57;4.57;;;;;;;;;;5427125;26;20234;-56
2024/04/12 08:01:17;;;;;;;5.97;4.67;;;;;;;;;;5424604;26;20276;-57
2024/04/12 08:03:50;;;;;;;5.83;4.53;;;;;;;;;;5435514;26;20233;-57
2024/04/12 08:06:19;;;;;;;6.00;4.37;;;;;;;;;;5430883;26;21120;-58
2024/04/12 08:09:03;;;;;;;5.20;4.70;;;;;;;;;;5421129;26;20226;-57
2024/04/12 08:11:34;;;;;;;5.10;4.60;;;;;;;;;;5439575;26;20233;-56
2024/04/12 08:14:06;;;;;;;6.27;4.90;;;;;;;;;;5430198;26;20229;-57
2024/04/12 08:16:35;;;;;;;6.33;5.20;;;;;;;;;;5438855;26;20800;-58
2024/04/12 08:19:03;;;;;;;5.97;4.33;;;;;;;;;;5432307;26;20230;-58
2024/04/12 08:21:31;;;;;;;6.57;4.23;;;;;;;;;;5433227;26;20705;-57
2024/04/12 08:24:07;;;;;;;6.13;4.70;;;;;;;;;;5425730;26;20231;-58
2024/04/12 08:26:33;;;;;;;6.10;4.80;;;;;;;;;;5428762;26;20265;-57
2024/04/12 08:29:00;;;;;;;7.37;4.47;;;;;;;;;;5430235;26;20622;-57
2024/04/12 08:31:29;;;;;;;4.70;4.20;;;;;;;;;;5426835;26;21144;-60
2024/04/12 08:33:57;;;;;;;10.97;4.60;;;;;;;;;;5427915;26;20226;-60
2024/04/12 08:36:24;;;;;;;7.13;4.40;;;;;;;;;;5438437;26;20286;-60
2024/04/12 08:41:42;;;;;;;7.57;4.43;;;;;;;;;;5427247;26;20246;-59
2024/04/12 08:44:12;;;;;;;10.07;4.43;;;;;;;;;;5422813;26;20233;-60
2024/04/12 08:46:40;;;;;;;6.27;5.10;;;;;;;;;;5424728;26;20238;-59
2024/04/12 08:49:14;;;;;;;6.40;4.30;;;;;;;;;;5432715;26;20222;-60
2024/04/12 08:51:40;;;;;;;6.27;4.30;;;;;;;;;;5433801;26;20233;-58
2024/04/12 08:54:09;;;;;;;6.67;4.20;;;;;;;;;;5429264;26;20265;-61
2024/04/12 08:56:35;;;;;;;7.33;4.97;;;;;;;;;;5425019;26;20644;-60
2024/04/12 08:59:07;;;;;;;7.90;5.10;;;;;;;;;;5431723;26;20222;-60
2024/04/12 09:01:35;;;;;;;8.07;5.00;;;;;;;;;;5439295;26;20767;-59
2024/04/12 09:04:06;;;;;;;4.37;3.97;;;;;;;;;;5420663;26;20226;-58
2024/04/12 09:06:35;;;;;;;7.50;4.90;;;;;;;;;;5442160;26;20238;-59
2024/04/12 09:09:01;;;;;;;5.73;4.27;;;;;;;;;;5440735;26;20553;-57
2024/04/12 09:11:31;;;;;;;5.63;4.83;;;;;;;;;;5420205;26;20258;-60
2024/04/12 09:14:08;;;;;;;7.87;5.60;;;;;;;;;;5413408;26;20273;-59
2024/04/12 09:16:43;;;;;;;6.67;4.87;;;;;;;;;;5425338;26;20273;-59
2024/04/12 09:19:13;;;;;;;6.07;4.20;;;;;;;;;;5420718;26;20332;-58
2024/04/12 09:21:47;;;;;;;6.30;4.47;;;;;;;;;;5426030;26;20269;-59
2024/04/12 09:24:21;;;;;;;5.27;4.37;;;;;;;;;;5424971;26;20238;-60
2024/04/12 09:26:58;;;;;;;8.33;4.60;;;;;;;;;;5419406;26;20242;-59
2024/04/12 09:29:28;;;;;;;6.10;4.40;;;;;;;;;;5431015;26;20269;-57
2024/04/12 09:34:46;;;;;;;7.77;5.33;;;;;;;;;;5417052;26;20657;-59
2024/04/12 09:37:29;;;;;;;4.93;4.20;;;;;;;;;;5425673;26;20221;-59
2024/04/12 09:40:04;;;;;;;7.60;4.67;;;;;;;;;;5428765;26;20640;-57
2024/04/12 09:45:22;;;;;;;7.53;5.00;;;;;;;;;;5420244;26;20260;-59
2024/04/12 10:37:51;;;;;;;9.27;4.37;;;;;;;;;;5419977;26;20275;-55
2024/04/12 10:40:21;;;;;;;6.20;4.40;;;;;;;;;;5429965;26;20238;-55
2024/04/12 10:42:52;;;;;;;5.70;4.00;;;;;;;;;;5417994;26;20309;-56
2024/04/12 10:45:18;;;;;;;7.70;3.60;;;;;;;;;;5420876;26;20257;-55
2024/04/12 10:47:44;;;;;;;7.70;4.23;;;;;;;;;;5423842;26;20643;-56
2024/04/12 10:50:11;;;;;;;8.47;4.00;;;;;;;;;;5429019;26;20234;-55
2024/04/12 10:52:38;;;;;;;4.10;3.40;;;;;;;;;;5414407;26;20270;-56
2024/04/12 10:55:08;;;;;;;3.97;3.57;;;;;;;;;;5426854;26;20229;-55
2024/04/12 10:57:35;;;;;;;7.87;3.87;;;;;;;;;;5422079;26;20338;-56
2024/04/12 11:00:01;;;;;;;4.47;3.50;;;;;;;;;;5432374;26;20219;-56
2024/04/12 11:02:33;;;;;;;4.53;3.40;;;;;;;;;;5431150;26;20330;-58
2024/04/12 11:07:44;;;;;;;6.70;4.10;;;;;;;;;;5423400;26;20734;-58
2024/04/12 11:10:23;;;;;;;4.83;3.40;;;;;;;;;;5415456;26;20272;-58
2024/04/12 11:12:51;;;;;;;10.10;4.23;;;;;;;;;;5411773;26;20282;-58
2024/04/12 11:32:05;;;;;;;2.80;2.40;;;;;;;;;;5433952;26;20260;-58
2024/04/12 11:34:32;;;;;;;4.07;2.67;;;;;;;;;;5426807;26;20242;-59
2024/04/12 11:37:05;;;;;;;6.67;2.80;;;;;;;;;;5428054;26;20289;-58
2024/04/12 11:39:35;;;;;;;3.83;2.50;;;;;;;;;;5427670;26;20724;-58
2024/04/12 11:42:01;;;;;;;4.57;2.27;;;;;;;;;;5421894;26;20241;-58
2024/04/12 11:44:27;;;;;;;5.07;2.83;;;;;;;;;;5416813;26;20331;-58
2024/04/12 11:46:56;;;;;;;6.13;2.70;;;;;;;;;;5437813;26;20227;-58
2024/04/12 11:49:26;;;;;;;2.77;2.20;;;;;;;;;;5427815;26;20223;-58
2024/04/12 11:52:01;;;;;;;4.93;2.80;;;;;;;;;;5426358;26;20709;-59
2024/04/12 11:54:31;;;;;;;2.97;2.03;;;;;;;;;;5425865;26;20238;-58
2024/04/12 11:57:00;;;;;;;2.40;2.20;;;;;;;;;;5426762;26;20283;-60
2024/04/12 11:59:27;;;;;;;4.03;2.40;;;;;;;;;;5414096;26;20232;-61
2024/04/12 12:01:59;;;;;;;3.30;2.70;;;;;;;;;;5436779;26;20232;-63
2024/04/12 12:04:34;;;;;;;4.97;2.47;;;;;;;;;;5418649;26;20240;-62
2024/04/12 12:07:02;;;;;;;5.33;2.40;;;;;;;;;;5425317;26;20352;-62
2024/04/12 12:09:31;;;;;;;2.37;2.03;;;;;;;;;;5422299;26;20315;-62
2024/04/12 12:12:02;;;;;;;5.00;2.07;;;;;;;;;;5411933;26;20242;-61
2024/04/12 12:14:28;;;;;;;5.07;2.30;;;;;;;;;;5423453;26;20736;-60
2024/04/12 12:16:58;;;;;;;5.97;2.80;;;;;;;;;;5423645;26;20217;-61
2024/04/12 12:19:24;;;;;;;4.60;2.53;;;;;;;;;;5418650;26;20702;-61
2024/04/12 12:21:50;;;;;;;3.63;3.00;;;;;;;;;;5445673;26;20349;-60
2024/04/12 12:24:16;;;;;;;3.27;2.30;;;;;;;;;;5419417;26;20241;-61
2024/04/12 12:26:44;;;;;;;6.60;2.87;;;;;;;;;;5426668;26;20286;-61
2024/04/12 12:29:13;;;;;;;6.03;2.47;;;;;;;;;;5434252;26;20732;-62
2024/04/12 12:31:39;;;;;;;3.13;2.33;;;;;;;;;;5420680;26;20293;-61
2024/04/12 12:34:05;;;;;;;5.30;2.93;;;;;;;;;;5426221;26;20573;-62
2024/04/12 12:36:33;;;;;;;3.13;2.80;;;;;;;;;;5435204;26;20350;-62
2024/04/12 12:38:59;;;;;;;3.80;2.50;;;;;;;;;;5413621;26;20831;-63
2024/04/12 12:41:27;;;;;;;4.40;2.17;;;;;;;;;;5420709;26;20295;-63
2024/04/12 12:43:53;;;;;;;5.23;2.50;;;;;;;;;;5432125;26;20265;-64
2024/04/12 12:46:21;;;;;;;4.10;2.67;;;;;;;;;;5424642;26;20635;-64
2024/04/12 12:48:48;;;;;;;6.93;3.17;;;;;;;;;;5427508;26;20632;-64
2024/04/12 12:51:15;;;;;;;3.80;3.13;;;;;;;;;;5417607;26;20246;-63
2024/04/12 12:53:43;;;;;;;4.37;2.20;;;;;;;;;;5424636;26;20664;-64
2024/04/12 12:56:09;;;;;;;4.00;2.63;;;;;;;;;;5426294;26;20272;-64
2024/04/12 12:58:37;;;;;;;4.00;2.67;;;;;;;;;;5433970;26;20329;-64
2024/04/12 13:01:07;;;;;;;5.47;2.70;;;;;;;;;;5431216;26;20280;-64
2024/04/12 13:03:35;;;;;;;7.83;3.23;;;;;;;;;;5430443;26;20698;-65
2024/04/12 13:06:06;;;;;;;2.90;2.50;;;;;;;;;;5424299;26;20655;-65
2024/04/12 13:08:35;;;;;;;4.90;2.67;;;;;;;;;;5431542;26;20296;-66
2024/04/12 13:11:07;;;;;;;3.70;2.57;;;;;;;;;;5422547;26;20284;-65
2024/04/12 13:13:33;;;;;;;3.30;2.43;;;;;;;;;;5420884;26;20256;-65
2024/04/12 13:15:59;;;;;;;5.27;2.77;;;;;;;;;;5430910;26;20272;-63
2024/04/12 13:18:29;;;;;;;5.13;2.53;;;;;;;;;;5431018;26;20769;-65
2024/04/12 13:20:56;;;;;;;2.50;2.30;;;;;;;;;;5427398;26;20267;-64
2024/04/12 13:23:26;;;;;;;7.90;3.63;;;;;;;;;;5424941;26;20259;-64
2024/04/12 13:25:53;;;;;;;6.90;3.30;;;;;;;;;;5423273;26;20230;-64
2024/04/12 13:28:19;;;;;;;6.80;3.03;;;;;;;;;;5422198;26;20563;-65
2024/04/12 13:30:47;;;;;;;6.53;3.10;;;;;;;;;;5426517;26;20781;-67
2024/04/12 13:33:14;;;;;;;4.83;2.80;;;;;;;;;;5435002;26;20226;-66
2024/04/12 13:35:41;;;;;;;6.67;2.63;;;;;;;;;;5430107;26;20222;-66
2024/04/12 13:38:17;;;;;;;35.37;6.07;;;;;;;;;;5436413;26;20333;-66
2024/04/12 13:40:45;;;;;;;77.53;9.73;;;;;;;;;;5426283;26;20280;-68
2024/04/12 13:43:14;;;;;;;5.57;2.97;;;;;;;;;;5432238;26;20231;-68
2024/04/12 13:51:12;;;;;;;4.20;3.10;;;;;;;;;;5418300;26;20340;-68
2024/04/12 13:53:43;;;;;;;3.53;2.50;;;;;;;;;;5415941;26;20268;-62
2024/04/12 13:58:58;;;;;;;8.27;3.40;;;;;;;;;;5439754;26;20222;-61
2024/04/12 14:01:25;;;;;;;3.90;2.67;;;;;;;;;;5428264;26;20555;-61
2024/04/12 14:03:51;;;;;;;4.93;3.00;;;;;;;;;;5423630;26;20335;-61
2024/04/12 14:06:18;;;;;;;6.03;2.53;;;;;;;;;;5426210;26;20356;-61
2024/04/12 14:08:44;;;;;;;3.10;2.33;;;;;;;;;;5427575;26;20298;-61
2024/04/12 14:11:10;;;;;;;5.77;2.90;;;;;;;;;;5432245;26;20428;-62
2024/04/12 14:13:37;;;;;;;3.87;2.40;;;;;;;;;;5426785;26;20226;-61
2024/04/12 14:16:03;;;;;;;3.50;2.73;;;;;;;;;;5430450;26;20283;-61
2024/04/12 14:18:29;;;;;;;5.07;2.90;;;;;;;;;;5432112;26;20245;-61
2024/04/12 14:20:57;;;;;;;3.60;2.33;;;;;;;;;;5428554;26;20230;-61
2024/04/12 14:23:24;;;;;;;2.83;2.53;;;;;;;;;;5419360;26;20343;-60
2024/04/12 14:25:50;;;;;;;4.07;2.63;;;;;;;;;;5430202;26;20272;-60
2024/04/12 14:28:16;;;;;;;3.43;2.90;;;;;;;;;;5428294;26;20345;-61
2024/04/12 14:30:42;;;;;;;5.43;3.00;;;;;;;;;;5424591;26;20282;-60
2024/04/12 14:33:08;;;;;;;4.87;2.70;;;;;;;;;;5421891;26;20235;-61
2024/04/12 14:35:41;;;;;;;3.83;2.90;;;;;;;;;;5425751;26;20277;-62
2024/04/12 14:38:07;;;;;;;4.57;2.47;;;;;;;;;;5431639;26;20268;-61
2024/04/12 14:40:34;;;;;;;4.50;2.87;;;;;;;;;;5429771;26;20372;-61
2024/04/12 14:43:05;;;;;;;5.50;3.00;;;;;;;;;;5427389;26;20295;-63
2024/04/12 14:45:33;;;;;;;3.40;2.90;;;;;;;;;;5427548;26;20238;-62
2024/04/12 14:47:59;;;;;;;6.20;2.87;;;;;;;;;;5417626;26;20268;-63
2024/04/12 14:50:26;;;;;;;3.47;2.77;;;;;;;;;;5425206;26;20304;-63
2024/04/12 14:52:52;;;;;;;3.03;2.60;;;;;;;;;;5425798;26;20276;-61
2024/04/12 14:55:18;;;;;;;5.13;3.03;;;;;;;;;;5430074;26;20599;-61
2024/04/12 14:57:49;;;;;;;5.00;2.60;;;;;;;;;;5432965;26;20617;-61
2024/04/12 15:00:18;;;;;;;4.20;3.10;;;;;;;;;;5426890;26;20289;-61
2024/04/12 15:49:21;;;;;;;3.90;3.03;;;;;;;;;;5428139;26;20268;-61
2024/04/12 15:51:51;;;;;;;3.77;2.60;;;;;;;;;;5430559;26;20242;-61
2024/04/12 15:54:26;;;;;;;3.83;2.73;;;;;;;;;;5435562;26;20244;-60
2024/04/12 16:10:48;;;;;;;5.67;2.70;;;;;;;;;;5419917;26;20614;-58
2024/04/12 16:13:14;;;;;;;5.20;2.53;;;;;;;;;;5422671;26;20788;-60
2024/04/12 16:15:40;;;;;;;6.47;3.03;;;;;;;;;;5429871;26;20740;-59
2024/04/12 16:18:06;;;;;;;4.43;2.83;;;;;;;;;;5438944;26;20245;-59
2024/04/12 16:20:34;;;;;;;11.23;2.80;;;;;;;;;;5449320;26;20649;-58
2024/04/12 16:23:00;;;;;;;8.30;2.90;;;;;;;;;;5458985;26;20925;-59
2024/04/12 16:25:26;;;;;;;6.23;2.27;;;;;;;;;;5452976;26;20234;-60
2024/04/12 16:27:55;;;;;;;6.97;3.40;;;;;;;;;;5432307;26;20404;-60
2024/04/12 16:30:21;;;;;;;7.43;2.97;;;;;;;;;;5448727;26;20810;-60
2024/04/12 16:32:47;;;;;;;4.20;2.80;;;;;;;;;;5447781;26;20691;-60
2024/04/12 16:35:13;;;;;;;8.67;3.13;;;;;;;;;;5449893;26;20238;-59
2024/04/12 16:37:40;;;;;;;7.87;3.07;;;;;;;;;;5451735;26;20294;-60
2024/04/12 16:40:06;;;;;;;4.73;2.97;;;;;;;;;;5442625;26;20234;-59
2024/04/12 16:42:32;;;;;;;6.57;2.93;;;;;;;;;;5426554;26;20227;-59
2024/04/12 16:44:58;;;;;;;9.10;3.27;;;;;;;;;;5447363;26;20273;-59
2024/04/12 16:47:24;;;;;;;9.13;3.27;;;;;;;;;;5439823;26;20246;-59
2024/04/12 16:49:50;;;;;;;7.40;3.00;;;;;;;;;;5440041;26;20237;-57
2024/04/12 16:52:17;;;;;;;7.10;3.23;;;;;;;;;;5426494;26;20551;-58
2024/04/12 16:54:43;;;;;;;6.97;3.03;;;;;;;;;;5435558;26;20229;-57
2024/04/12 16:57:11;;;;;;;5.47;3.43;;;;;;;;;;5447692;26;20755;-58
2024/04/12 16:59:38;;;;;;;5.20;2.70;;;;;;;;;;5435834;26;20774;-59
2024/04/12 17:02:04;;;;;;;4.43;3.20;;;;;;;;;;5433022;26;20273;-58
2024/04/12 17:04:30;;;;;;;4.03;2.80;;;;;;;;;;5424225;26;20808;-58
2024/04/12 17:06:56;;;;;;;4.33;2.90;;;;;;;;;;5418531;26;20238;-57
2024/04/12 17:09:24;;;;;;;5.87;3.07;;;;;;;;;;5442169;26;20225;-57
2024/04/12 17:11:50;;;;;;;5.33;3.33;;;;;;;;;;5445393;26;20275;-59
2024/04/12 17:14:16;;;;;;;5.63;3.70;;;;;;;;;;5445388;26;20225;-58
2024/04/12 17:16:42;;;;;;;6.10;3.30;;;;;;;;;;5427694;26;20647;-58
2024/04/12 17:19:11;;;;;;;4.63;2.90;;;;;;;;;;5430764;26;20230;-60
2024/04/12 17:21:37;;;;;;;7.07;3.53;;;;;;;;;;5428201;26;20226;-58